sensor_id;sensor_type;location;lat;lon;timestamp;temperature;humidity
41256;DHT22;26989;45.524;10.938;2022-08-19T00:01:44;21.60;99.90
41256;DHT22;26989;45.524;10.938;2022-08-19T00:04:22;21.50;99.90
41256;DHT22;26989;45.524;10.938;2022-08-19T00:06:49;21.40;99.90
41256;DHT22;26989;45.524;10.938;2022-08-19T00:09:18;21.10;99.90
41256;DHT22;26989;45.524;10.938;2022-08-19T00:11:45;21.00;99.90
41256;DHT22;26989;45.524;10.938;2022-08-19T00:14:15;20.90;99.90
41256;DHT22;26989;45.524;10.938;2022-08-19T00:16:44;20.90;99.90
41256;DHT22;26989;45.524;10.938;2022-08-19T00:19:11;20.90;99.90
41256;DHT22;26989;45.524;10.938;2022-08-19T00:21:38;20.90;99.90
41256;DHT22;26989;45.524;10.938;2022-08-19T00:24:08;20.80;99.90
41256;DHT22;26989;45.524;10.938;2022-08-19T00:26:36;20.40;99.90
41256;DHT22;26989;45.524;10.938;2022-08-19T00:29:04;20.20;99.90
41256;DHT22;26989;45.524;10.938;2022-08-19T00:31:32;20.30;99.90
41256;DHT22;26989;45.524;10.938;2022-08-19T00:33:59;20.50;99.90
41256;DHT22;26989;45.524;10.938;2022-08-19T00:36:26;20.50;99.90
41256;DHT22;26989;45.524;10.938;2022-08-19T00:38:53;20.60;99.90
41256;DHT22;26989;45.524;10.938;2022-08-19T00:41:21;20.80;99.90
41256;DHT22;26989;45.524;10.938;2022-08-19T00:46:26;20.80;99.90
41256;DHT22;26989;45.524;10.938;2022-08-19T00:48:54;20.80;99.90
41256;DHT22;26989;45.524;10.938;2022-08-19T00:51:21;20.70;99.90
41256;DHT22;26989;45.524;10.938;2022-08-19T00:53:50;20.70;99.90
41256;DHT22;26989;45.524;10.938;2022-08-19T00:56:17;20.60;99.90
41256;DHT22;26989;45.524;10.938;2022-08-19T00:58:45;20.60;99.90
41256;DHT22;26989;45.524;10.938;2022-08-19T01:01:12;20.60;99.90
41256;DHT22;26989;45.524;10.938;2022-08-19T01:03:40;20.60;99.90
41256;DHT22;26989;45.524;10.938;2022-08-19T01:06:25;20.60;99.90
41256;DHT22;26989;45.524;10.938;2022-08-19T01:08:53;20.60;99.90
41256;DHT22;26989;45.524;10.938;2022-08-19T01:11:20;20.60;99.90
41256;DHT22;26989;45.524;10.938;2022-08-19T01:13:47;20.60;99.90
41256;DHT22;26989;45.524;10.938;2022-08-19T01:16:17;20.70;99.90
41256;DHT22;26989;45.524;10.938;2022-08-19T01:18:45;20.80;99.90
41256;DHT22;26989;45.524;10.938;2022-08-19T01:23:52;20.90;99.90
41256;DHT22;26989;45.524;10.938;2022-08-19T01:26:22;20.90;99.90
41256;DHT22;26989;45.524;10.938;2022-08-19T01:28:52;20.80;99.90
41256;DHT22;26989;45.524;10.938;2022-08-19T01:31:28;20.80;99.90
41256;DHT22;26989;45.524;10.938;2022-08-19T01:33:59;20.80;99.90
41256;DHT22;26989;45.524;10.938;2022-08-19T01:38:59;20.40;99.90
41256;DHT22;26989;45.524;10.938;2022-08-19T01:41:26;20.20;99.90
41256;DHT22;26989;45.524;10.938;2022-08-19T01:43:53;20.20;99.90
41256;DHT22;26989;45.524;10.938;2022-08-19T01:46:41;20.00;99.90
41256;DHT22;26989;45.524;10.938;2022-08-19T01:49:09;20.00;99.90
41256;DHT22;26989;45.524;10.938;2022-08-19T01:51:37;20.10;99.90
41256;DHT22;26989;45.524;10.938;2022-08-19T01:54:08;20.10;99.90
41256;DHT22;26989;45.524;10.938;2022-08-19T01:56:35;20.20;99.90
41256;DHT22;26989;45.524;10.938;2022-08-19T01:59:06;20.20;99.90
41256;DHT22;26989;45.524;10.938;2022-08-19T02:01:35;20.20;99.90
41256;DHT22;26989;45.524;10.938;2022-08-19T02:04:02;20.20;99.90
41256;DHT22;26989;45.524;10.938;2022-08-19T02:06:29;20.20;99.90
41256;DHT22;26989;45.524;10.938;2022-08-19T02:08:56;20.20;99.90
41256;DHT22;26989;45.524;10.938;2022-08-19T02:11:27;20.10;99.90
41256;DHT22;26989;45.524;10.938;2022-08-19T02:13:55;20.10;99.90
41256;DHT22;26989;45.524;10.938;2022-08-19T02:16:22;20.00;99.90
41256;DHT22;26989;45.524;10.938;2022-08-19T02:18:49;20.00;99.90
41256;DHT22;26989;45.524;10.938;2022-08-19T02:21:20;20.00;99.90
41256;DHT22;26989;45.524;10.938;2022-08-19T02:23:48;20.00;99.90
41256;DHT22;26989;45.524;10.938;2022-08-19T02:26:15;20.00;99.90
41256;DHT22;26989;45.524;10.938;2022-08-19T02:28:43;19.90;99.90
41256;DHT22;26989;45.524;10.938;2022-08-19T02:31:15;19.90;99.90
41256;DHT22;26989;45.524;10.938;2022-08-19T02:33:42;19.90;99.90
41256;DHT22;26989;45.524;10.938;2022-08-19T02:36:11;20.00;99.90
41256;DHT22;26989;45.524;10.938;2022-08-19T02:38:39;19.90;99.90
41256;DHT22;26989;45.524;10.938;2022-08-19T02:41:12;19.90;99.90
41256;DHT22;26989;45.524;10.938;2022-08-19T02:43:39;19.80;99.90
41256;DHT22;26989;45.524;10.938;2022-08-19T02:46:29;19.90;99.90
41256;DHT22;26989;45.524;10.938;2022-08-19T02:49:00;19.90;99.90
41256;DHT22;26989;45.524;10.938;2022-08-19T02:51:38;19.90;99.90
41256;DHT22;26989;45.524;10.938;2022-08-19T02:54:06;20.00;99.90
41256;DHT22;26989;45.524;10.938;2022-08-19T02:56:37;20.00;99.90
41256;DHT22;26989;45.524;10.938;2022-08-19T02:59:05;19.90;99.90
41256;DHT22;26989;45.524;10.938;2022-08-19T03:01:39;20.00;99.90
41256;DHT22;26989;45.524;10.938;2022-08-19T03:04:09;19.80;99.90
41256;DHT22;26989;45.524;10.938;2022-08-19T03:06:38;19.70;99.90
41256;DHT22;26989;45.524;10.938;2022-08-19T03:09:05;19.70;99.90
41256;DHT22;26989;45.524;10.938;2022-08-19T03:11:33;19.80;99.90
41256;DHT22;26989;45.524;10.938;2022-08-19T03:14:01;19.90;99.90
41256;DHT22;26989;45.524;10.938;2022-08-19T03:16:30;19.80;99.90
41256;DHT22;26989;45.524;10.938;2022-08-19T03:19:00;19.80;99.90
41256;DHT22;26989;45.524;10.938;2022-08-19T03:21:29;19.70;99.90
41256;DHT22;26989;45.524;10.938;2022-08-19T03:23:58;19.70;99.90
41256;DHT22;26989;45.524;10.938;2022-08-19T03:26:26;19.70;99.90
41256;DHT22;26989;45.524;10.938;2022-08-19T03:28:53;19.60;99.90
41256;DHT22;26989;45.524;10.938;2022-08-19T03:31:26;19.60;99.90
41256;DHT22;26989;45.524;10.938;2022-08-19T03:34:19;19.50;99.90
41256;DHT22;26989;45.524;10.938;2022-08-19T03:36:47;19.50;99.90
41256;DHT22;26989;45.524;10.938;2022-08-19T03:39:15;19.40;99.90
41256;DHT22;26989;45.524;10.938;2022-08-19T03:41:44;19.30;99.90
41256;DHT22;26989;45.524;10.938;2022-08-19T03:44:17;19.30;99.90
41256;DHT22;26989;45.524;10.938;2022-08-19T03:46:47;19.30;99.90
41256;DHT22;26989;45.524;10.938;2022-08-19T03:49:14;19.30;99.90
41256;DHT22;26989;45.524;10.938;2022-08-19T03:51:44;19.30;99.90
41256;DHT22;26989;45.524;10.938;2022-08-19T03:54:13;19.20;99.90
41256;DHT22;26989;45.524;10.938;2022-08-19T03:56:42;19.20;99.90
41256;DHT22;26989;45.524;10.938;2022-08-19T03:59:12;19.10;99.90
41256;DHT22;26989;45.524;10.938;2022-08-19T04:01:40;19.00;99.90
41256;DHT22;26989;45.524;10.938;2022-08-19T04:04:07;19.00;99.90
41256;DHT22;26989;45.524;10.938;2022-08-19T04:06:37;19.00;99.90
41256;DHT22;26989;45.524;10.938;2022-08-19T04:09:08;19.10;99.90
41256;DHT22;26989;45.524;10.938;2022-08-19T04:11:38;19.20;99.90
41256;DHT22;26989;45.524;10.938;2022-08-19T04:14:16;19.20;99.90
41256;DHT22;26989;45.524;10.938;2022-08-19T04:16:43;19.20;99.90
41256;DHT22;26989;45.524;10.938;2022-08-19T04:19:11;19.20;99.90
41256;DHT22;26989;45.524;10.938;2022-08-19T04:21:38;19.20;99.90
41256;DHT22;26989;45.524;10.938;2022-08-19T04:24:05;19.30;99.90
41256;DHT22;26989;45.524;10.938;2022-08-19T04:26:35;19.40;99.90
41256;DHT22;26989;45.524;10.938;2022-08-19T04:29:07;19.40;99.90
41256;DHT22;26989;45.524;10.938;2022-08-19T04:31:39;19.50;99.90
41256;DHT22;26989;45.524;10.938;2022-08-19T04:34:07;19.60;99.90
41256;DHT22;26989;45.524;10.938;2022-08-19T04:36:39;19.70;99.90
41256;DHT22;26989;45.524;10.938;2022-08-19T04:39:14;19.80;99.90
41256;DHT22;26989;45.524;10.938;2022-08-19T04:41:41;19.90;99.90
41256;DHT22;26989;45.524;10.938;2022-08-19T04:44:27;20.00;99.90
41256;DHT22;26989;45.524;10.938;2022-08-19T04:46:58;20.10;99.90
41256;DHT22;26989;45.524;10.938;2022-08-19T04:49:27;20.00;99.90
41256;DHT22;26989;45.524;10.938;2022-08-19T04:51:54;20.00;99.90
41256;DHT22;26989;45.524;10.938;2022-08-19T04:54:23;20.00;99.90
41256;DHT22;26989;45.524;10.938;2022-08-19T04:57:06;20.00;99.90
41256;DHT22;26989;45.524;10.938;2022-08-19T04:59:38;19.80;99.90
41256;DHT22;26989;45.524;10.938;2022-08-19T05:02:08;19.70;99.90
41256;DHT22;26989;45.524;10.938;2022-08-19T05:04:35;19.60;99.90
41256;DHT22;26989;45.524;10.938;2022-08-19T05:07:06;19.40;99.90
41256;DHT22;26989;45.524;10.938;2022-08-19T05:09:34;19.40;99.90
41256;DHT22;26989;45.524;10.938;2022-08-19T05:12:21;19.40;99.90
41256;DHT22;26989;45.524;10.938;2022-08-19T05:14:54;19.60;99.90
41256;DHT22;26989;45.524;10.938;2022-08-19T05:17:24;19.90;99.90
41256;DHT22;26989;45.524;10.938;2022-08-19T05:19:55;20.00;99.90
41256;DHT22;26989;45.524;10.938;2022-08-19T05:22:41;19.90;99.90
41256;DHT22;26989;45.524;10.938;2022-08-19T05:25:11;19.80;99.90
41256;DHT22;26989;45.524;10.938;2022-08-19T05:27:41;19.80;99.90
41256;DHT22;26989;45.524;10.938;2022-08-19T05:30:09;19.90;99.90
41256;DHT22;26989;45.524;10.938;2022-08-19T05:32:36;20.10;99.90
41256;DHT22;26989;45.524;10.938;2022-08-19T05:35:04;20.60;99.90
41256;DHT22;26989;45.524;10.938;2022-08-19T05:37:32;21.90;99.90
41256;DHT22;26989;45.524;10.938;2022-08-19T05:39:59;22.30;99.90
41256;DHT22;26989;45.524;10.938;2022-08-19T05:42:26;20.90;99.90
41256;DHT22;26989;45.524;10.938;2022-08-19T05:44:53;20.50;99.90
41256;DHT22;26989;45.524;10.938;2022-08-19T05:47:20;20.50;99.90
41256;DHT22;26989;45.524;10.938;2022-08-19T05:49:48;20.60;99.90
41256;DHT22;26989;45.524;10.938;2022-08-19T05:52:16;20.60;99.90
41256;DHT22;26989;45.524;10.938;2022-08-19T05:54:45;20.60;99.90
41256;DHT22;26989;45.524;10.938;2022-08-19T05:57:18;20.70;99.90
41256;DHT22;26989;45.524;10.938;2022-08-19T05:59:46;20.90;99.90
41256;DHT22;26989;45.524;10.938;2022-08-19T06:02:23;21.00;99.90
41256;DHT22;26989;45.524;10.938;2022-08-19T06:04:51;21.20;99.90
41256;DHT22;26989;45.524;10.938;2022-08-19T06:07:18;21.40;99.90
41256;DHT22;26989;45.524;10.938;2022-08-19T06:09:46;21.50;99.90
41256;DHT22;26989;45.524;10.938;2022-08-19T06:12:31;21.50;99.90
41256;DHT22;26989;45.524;10.938;2022-08-19T06:15:03;21.70;99.90
41256;DHT22;26989;45.524;10.938;2022-08-19T06:17:31;21.70;99.90
41256;DHT22;26989;45.524;10.938;2022-08-19T06:19:58;21.50;99.90
41256;DHT22;26989;45.524;10.938;2022-08-19T06:22:26;21.50;99.90
41256;DHT22;26989;45.524;10.938;2022-08-19T06:24:54;21.20;99.90
41256;DHT22;26989;45.524;10.938;2022-08-19T06:27:22;21.20;99.90
41256;DHT22;26989;45.524;10.938;2022-08-19T06:29:49;21.10;99.90
41256;DHT22;26989;45.524;10.938;2022-08-19T06:32:17;21.00;99.90
41256;DHT22;26989;45.524;10.938;2022-08-19T06:34:45;20.90;99.90
41256;DHT22;26989;45.524;10.938;2022-08-19T06:37:13;20.90;99.90
41256;DHT22;26989;45.524;10.938;2022-08-19T06:39:42;20.90;99.90
41256;DHT22;26989;45.524;10.938;2022-08-19T06:42:10;20.70;99.90
41256;DHT22;26989;45.524;10.938;2022-08-19T06:44:40;20.60;99.90
41256;DHT22;26989;45.524;10.938;2022-08-19T06:47:13;20.50;99.90
41256;DHT22;26989;45.524;10.938;2022-08-19T06:49:55;20.40;99.90
41256;DHT22;26989;45.524;10.938;2022-08-19T06:52:30;20.40;99.90
41256;DHT22;26989;45.524;10.938;2022-08-19T06:55:01;20.40;99.90
41256;DHT22;26989;45.524;10.938;2022-08-19T06:57:32;20.30;99.90
41256;DHT22;26989;45.524;10.938;2022-08-19T06:59:59;20.30;99.90
41256;DHT22;26989;45.524;10.938;2022-08-19T07:02:26;20.50;99.90
41256;DHT22;26989;45.524;10.938;2022-08-19T07:04:53;20.60;99.90
41256;DHT22;26989;45.524;10.938;2022-08-19T07:07:21;20.70;99.90
41256;DHT22;26989;45.524;10.938;2022-08-19T07:09:49;20.70;99.90
41256;DHT22;26989;45.524;10.938;2022-08-19T07:12:29;20.80;99.90
41256;DHT22;26989;45.524;10.938;2022-08-19T07:15:03;20.80;99.90
41256;DHT22;26989;45.524;10.938;2022-08-19T07:17:30;20.80;99.90
41256;DHT22;26989;45.524;10.938;2022-08-19T07:20:01;20.70;99.90
41256;DHT22;26989;45.524;10.938;2022-08-19T07:22:31;20.60;99.90
41256;DHT22;26989;45.524;10.938;2022-08-19T07:24:59;20.60;99.90
41256;DHT22;26989;45.524;10.938;2022-08-19T07:27:26;20.50;99.90
41256;DHT22;26989;45.524;10.938;2022-08-19T07:29:54;20.40;99.90
41256;DHT22;26989;45.524;10.938;2022-08-19T07:32:22;20.30;99.90
41256;DHT22;26989;45.524;10.938;2022-08-19T07:34:49;20.20;99.90
41256;DHT22;26989;45.524;10.938;2022-08-19T07:37:15;20.20;99.90
41256;DHT22;26989;45.524;10.938;2022-08-19T07:39:42;20.20;99.90
41256;DHT22;26989;45.524;10.938;2022-08-19T07:42:10;20.20;99.90
41256;DHT22;26989;45.524;10.938;2022-08-19T07:44:39;20.30;99.90
41256;DHT22;26989;45.524;10.938;2022-08-19T07:47:12;20.40;99.90
41256;DHT22;26989;45.524;10.938;2022-08-19T07:49:59;20.40;99.90
41256;DHT22;26989;45.524;10.938;2022-08-19T07:52:26;20.40;99.90
41256;DHT22;26989;45.524;10.938;2022-08-19T07:54:53;20.20;99.90
41256;DHT22;26989;45.524;10.938;2022-08-19T07:57:20;20.10;99.90
41256;DHT22;26989;45.524;10.938;2022-08-19T07:59:47;20.00;99.90
41256;DHT22;26989;45.524;10.938;2022-08-19T08:02:14;20.00;99.90
41256;DHT22;26989;45.524;10.938;2022-08-19T08:04:41;20.00;99.90
41256;DHT22;26989;45.524;10.938;2022-08-19T08:07:26;20.20;99.90
41256;DHT22;26989;45.524;10.938;2022-08-19T08:10:12;20.10;99.90
41256;DHT22;26989;45.524;10.938;2022-08-19T08:12:47;20.00;99.90
41256;DHT22;26989;45.524;10.938;2022-08-19T08:15:34;20.10;99.90
41256;DHT22;26989;45.524;10.938;2022-08-19T08:18:07;20.10;99.90
41256;DHT22;26989;45.524;10.938;2022-08-19T08:20:34;20.00;99.90
41256;DHT22;26989;45.524;10.938;2022-08-19T08:23:02;20.00;99.90
41256;DHT22;26989;45.524;10.938;2022-08-19T08:25:47;20.10;99.90
41256;DHT22;26989;45.524;10.938;2022-08-19T08:28:19;20.20;99.90
41256;DHT22;26989;45.524;10.938;2022-08-19T08:30:47;20.20;99.90
41256;DHT22;26989;45.524;10.938;2022-08-19T08:33:20;20.30;99.90
41256;DHT22;26989;45.524;10.938;2022-08-19T08:36:10;20.20;99.90
41256;DHT22;26989;45.524;10.938;2022-08-19T08:38:38;20.30;99.90
41256;DHT22;26989;45.524;10.938;2022-08-19T08:41:31;20.30;99.90
41256;DHT22;26989;45.524;10.938;2022-08-19T08:43:59;20.30;99.90
41256;DHT22;26989;45.524;10.938;2022-08-19T08:46:29;20.30;99.90
41256;DHT22;26989;45.524;10.938;2022-08-19T08:51:50;20.10;99.90
41256;DHT22;26989;45.524;10.938;2022-08-19T08:54:30;20.20;99.90
41256;DHT22;26989;45.524;10.938;2022-08-19T08:57:01;20.30;99.90
41256;DHT22;26989;45.524;10.938;2022-08-19T08:59:36;20.20;99.90
41256;DHT22;26989;45.524;10.938;2022-08-19T09:02:05;20.10;99.90
41256;DHT22;26989;45.524;10.938;2022-08-19T09:04:34;20.20;99.90
41256;DHT22;26989;45.524;10.938;2022-08-19T09:10:32;20.40;99.90
41256;DHT22;26989;45.524;10.938;2022-08-19T09:15:58;20.30;99.90
41256;DHT22;26989;45.524;10.938;2022-08-19T09:18:55;20.10;99.90
41256;DHT22;26989;45.524;10.938;2022-08-19T09:21:25;20.10;99.90
41256;DHT22;26989;45.524;10.938;2022-08-19T09:23:59;20.10;99.90
41256;DHT22;26989;45.524;10.938;2022-08-19T09:26:29;20.10;99.90
41256;DHT22;26989;45.524;10.938;2022-08-19T09:29:16;20.10;99.90
41256;DHT22;26989;45.524;10.938;2022-08-19T09:31:43;20.10;99.90
41256;DHT22;26989;45.524;10.938;2022-08-19T09:34:10;20.30;99.90
41256;DHT22;26989;45.524;10.938;2022-08-19T09:36:48;20.30;99.90
41256;DHT22;26989;45.524;10.938;2022-08-19T09:39:16;20.30;99.90
41256;DHT22;26989;45.524;10.938;2022-08-19T09:41:43;20.30;99.90
41256;DHT22;26989;45.524;10.938;2022-08-19T09:44:15;20.40;99.90
41256;DHT22;26989;45.524;10.938;2022-08-19T09:46:43;20.50;99.90
41256;DHT22;26989;45.524;10.938;2022-08-19T09:49:10;20.50;99.90
41256;DHT22;26989;45.524;10.938;2022-08-19T09:51:39;20.50;99.90
41256;DHT22;26989;45.524;10.938;2022-08-19T09:54:06;20.60;99.90
41256;DHT22;26989;45.524;10.938;2022-08-19T09:56:37;20.70;99.90
41256;DHT22;26989;45.524;10.938;2022-08-19T09:59:03;20.70;99.90
41256;DHT22;26989;45.524;10.938;2022-08-19T10:01:31;20.90;99.90
41256;DHT22;26989;45.524;10.938;2022-08-19T10:04:00;21.00;99.90
41256;DHT22;26989;45.524;10.938;2022-08-19T10:06:36;21.10;99.90
41256;DHT22;26989;45.524;10.938;2022-08-19T10:09:13;21.10;99.90
41256;DHT22;26989;45.524;10.938;2022-08-19T10:11:42;21.20;99.90
41256;DHT22;26989;45.524;10.938;2022-08-19T10:14:18;21.50;99.90
41256;DHT22;26989;45.524;10.938;2022-08-19T10:16:48;21.50;99.90
41256;DHT22;26989;45.524;10.938;2022-08-19T10:19:17;21.50;99.90
41256;DHT22;26989;45.524;10.938;2022-08-19T10:21:52;21.80;99.90
41256;DHT22;26989;45.524;10.938;2022-08-19T10:24:21;21.50;99.90
41256;DHT22;26989;45.524;10.938;2022-08-19T10:26:50;21.50;99.90
41256;DHT22;26989;45.524;10.938;2022-08-19T10:29:23;21.50;99.90
41256;DHT22;26989;45.524;10.938;2022-08-19T10:31:59;21.90;99.90
41256;DHT22;26989;45.524;10.938;2022-08-19T10:34:29;22.20;99.90
41256;DHT22;26989;45.524;10.938;2022-08-19T10:36:57;22.30;99.90
41256;DHT22;26989;45.524;10.938;2022-08-19T10:39:28;22.70;99.90
41256;DHT22;26989;45.524;10.938;2022-08-19T10:41:58;22.80;99.90
41256;DHT22;26989;45.524;10.938;2022-08-19T10:44:25;22.90;99.90
41256;DHT22;26989;45.524;10.938;2022-08-19T10:46:58;23.10;99.90
41256;DHT22;26989;45.524;10.938;2022-08-19T10:49:26;23.20;99.90
41256;DHT22;26989;45.524;10.938;2022-08-19T10:51:54;23.40;99.90
41256;DHT22;26989;45.524;10.938;2022-08-19T10:54:46;23.20;99.90
41256;DHT22;26989;45.524;10.938;2022-08-19T10:57:34;23.20;99.90
41256;DHT22;26989;45.524;10.938;2022-08-19T11:00:22;23.80;99.90
41256;DHT22;26989;45.524;10.938;2022-08-19T11:02:50;23.80;99.90
41256;DHT22;26989;45.524;10.938;2022-08-19T11:05:17;23.40;99.90
41256;DHT22;26989;45.524;10.938;2022-08-19T11:07:45;22.80;99.90
41256;DHT22;26989;45.524;10.938;2022-08-19T11:10:14;22.40;99.90
41256;DHT22;26989;45.524;10.938;2022-08-19T11:12:47;22.50;99.90
41256;DHT22;26989;45.524;10.938;2022-08-19T11:15:15;22.80;99.90
41256;DHT22;26989;45.524;10.938;2022-08-19T11:17:42;22.60;99.90
41256;DHT22;26989;45.524;10.938;2022-08-19T11:20:11;22.30;99.90
41256;DHT22;26989;45.524;10.938;2022-08-19T11:22:39;22.00;99.90
41256;DHT22;26989;45.524;10.938;2022-08-19T11:25:09;22.00;99.90
41256;DHT22;26989;45.524;10.938;2022-08-19T11:27:38;22.30;99.90
41256;DHT22;26989;45.524;10.938;2022-08-19T11:30:06;22.60;99.90
41256;DHT22;26989;45.524;10.938;2022-08-19T11:32:39;22.50;99.90
41256;DHT22;26989;45.524;10.938;2022-08-19T11:35:12;22.50;99.90
41256;DHT22;26989;45.524;10.938;2022-08-19T11:37:40;22.70;99.90
41256;DHT22;26989;45.524;10.938;2022-08-19T11:40:07;22.70;99.90
41256;DHT22;26989;45.524;10.938;2022-08-19T11:42:35;22.60;99.90
41256;DHT22;26989;45.524;10.938;2022-08-19T11:45:20;22.50;99.90
41256;DHT22;26989;45.524;10.938;2022-08-19T11:47:47;22.30;99.90
41256;DHT22;26989;45.524;10.938;2022-08-19T11:50:15;22.30;99.90
41256;DHT22;26989;45.524;10.938;2022-08-19T11:52:43;22.10;99.90
41256;DHT22;26989;45.524;10.938;2022-08-19T11:55:12;22.20;99.90
41256;DHT22;26989;45.524;10.938;2022-08-19T11:57:39;22.30;99.90
41256;DHT22;26989;45.524;10.938;2022-08-19T12:00:08;22.20;99.90
41256;DHT22;26989;45.524;10.938;2022-08-19T12:02:36;22.10;99.90
41256;DHT22;26989;45.524;10.938;2022-08-19T12:05:04;22.10;99.90
41256;DHT22;26989;45.524;10.938;2022-08-19T12:07:37;22.10;99.90
41256;DHT22;26989;45.524;10.938;2022-08-19T12:10:05;21.80;99.90
41256;DHT22;26989;45.524;10.938;2022-08-19T12:12:33;21.90;99.90
41256;DHT22;26989;45.524;10.938;2022-08-19T12:15:00;22.20;99.90
41256;DHT22;26989;45.524;10.938;2022-08-19T12:17:28;22.40;99.90
41256;DHT22;26989;45.524;10.938;2022-08-19T12:19:57;22.30;99.90
41256;DHT22;26989;45.524;10.938;2022-08-19T12:22:24;22.50;99.90
41256;DHT22;26989;45.524;10.938;2022-08-19T12:24:51;22.40;99.90
41256;DHT22;26989;45.524;10.938;2022-08-19T12:27:19;22.20;99.90
41256;DHT22;26989;45.524;10.938;2022-08-19T12:30:07;23.00;99.90
41256;DHT22;26989;45.524;10.938;2022-08-19T12:32:35;23.30;99.90
41256;DHT22;26989;45.524;10.938;2022-08-19T12:35:03;23.20;99.90
41256;DHT22;26989;45.524;10.938;2022-08-19T12:37:30;23.70;99.90
41256;DHT22;26989;45.524;10.938;2022-08-19T12:39:59;23.50;99.90
41256;DHT22;26989;45.524;10.938;2022-08-19T12:42:26;23.40;99.90
41256;DHT22;26989;45.524;10.938;2022-08-19T12:44:54;22.60;99.90
41256;DHT22;26989;45.524;10.938;2022-08-19T12:47:22;22.90;99.90
41256;DHT22;26989;45.524;10.938;2022-08-19T12:49:49;22.90;99.90
41256;DHT22;26989;45.524;10.938;2022-08-19T12:52:25;22.90;99.90
41256;DHT22;26989;45.524;10.938;2022-08-19T12:54:55;23.40;99.90
41256;DHT22;26989;45.524;10.938;2022-08-19T12:57:24;24.30;99.90
41256;DHT22;26989;45.524;10.938;2022-08-19T12:59:58;24.70;99.90
41256;DHT22;26989;45.524;10.938;2022-08-19T13:02:25;24.80;99.90
41256;DHT22;26989;45.524;10.938;2022-08-19T13:04:52;25.30;99.90
41256;DHT22;26989;45.524;10.938;2022-08-19T13:07:20;25.50;99.90
41256;DHT22;26989;45.524;10.938;2022-08-19T13:09:47;25.50;99.90
41256;DHT22;26989;45.524;10.938;2022-08-19T13:12:17;25.60;99.90
41256;DHT22;26989;45.524;10.938;2022-08-19T13:14:50;25.70;99.90
41256;DHT22;26989;45.524;10.938;2022-08-19T13:17:19;25.70;99.90
41256;DHT22;26989;45.524;10.938;2022-08-19T13:19:46;25.50;99.90
41256;DHT22;26989;45.524;10.938;2022-08-19T13:22:12;25.70;99.90
41256;DHT22;26989;45.524;10.938;2022-08-19T13:24:40;25.80;99.90
41256;DHT22;26989;45.524;10.938;2022-08-19T13:27:12;25.90;99.90
41256;DHT22;26989;45.524;10.938;2022-08-19T13:29:40;25.80;99.90
41256;DHT22;26989;45.524;10.938;2022-08-19T13:32:26;25.70;99.90
41256;DHT22;26989;45.524;10.938;2022-08-19T13:35:15;25.40;99.90
41256;DHT22;26989;45.524;10.938;2022-08-19T13:37:43;25.20;99.90
41256;DHT22;26989;45.524;10.938;2022-08-19T13:40:14;25.30;99.90
41256;DHT22;26989;45.524;10.938;2022-08-19T13:42:45;25.40;99.90
41256;DHT22;26989;45.524;10.938;2022-08-19T13:45:14;25.40;99.90
41256;DHT22;26989;45.524;10.938;2022-08-19T13:47:41;25.30;99.90
41256;DHT22;26989;45.524;10.938;2022-08-19T13:50:12;25.30;99.90
41256;DHT22;26989;45.524;10.938;2022-08-19T13:52:40;24.80;99.90
41256;DHT22;26989;45.524;10.938;2022-08-19T13:55:09;25.10;99.90
41256;DHT22;26989;45.524;10.938;2022-08-19T13:57:36;25.20;99.90
41256;DHT22;26989;45.524;10.938;2022-08-19T14:00:08;25.60;99.90
41256;DHT22;26989;45.524;10.938;2022-08-19T14:02:38;26.00;99.90
41256;DHT22;26989;45.524;10.938;2022-08-19T14:05:08;26.20;99.90
41256;DHT22;26989;45.524;10.938;2022-08-19T14:07:36;26.40;99.90
41256;DHT22;26989;45.524;10.938;2022-08-19T14:10:06;26.60;99.90
41256;DHT22;26989;45.524;10.938;2022-08-19T14:12:33;26.00;99.90
41256;DHT22;26989;45.524;10.938;2022-08-19T14:15:01;26.00;99.90
41256;DHT22;26989;45.524;10.938;2022-08-19T14:17:29;26.50;99.90
41256;DHT22;26989;45.524;10.938;2022-08-19T14:19:58;27.00;99.90
41256;DHT22;26989;45.524;10.938;2022-08-19T14:22:37;27.30;99.90
41256;DHT22;26989;45.524;10.938;2022-08-19T14:25:07;27.00;99.90
41256;DHT22;26989;45.524;10.938;2022-08-19T14:27:35;27.10;99.90
41256;DHT22;26989;45.524;10.938;2022-08-19T14:30:04;27.00;99.90
41256;DHT22;26989;45.524;10.938;2022-08-19T14:32:34;27.00;99.90
41256;DHT22;26989;45.524;10.938;2022-08-19T14:35:02;26.60;99.90
41256;DHT22;26989;45.524;10.938;2022-08-19T14:37:29;26.30;99.90
41256;DHT22;26989;45.524;10.938;2022-08-19T14:39:56;26.20;99.90
41256;DHT22;26989;45.524;10.938;2022-08-19T14:42:23;26.70;99.90
41256;DHT22;26989;45.524;10.938;2022-08-19T14:44:49;27.10;99.90
41256;DHT22;26989;45.524;10.938;2022-08-19T14:47:16;27.40;99.90
41256;DHT22;26989;45.524;10.938;2022-08-19T14:49:45;27.50;99.90
41256;DHT22;26989;45.524;10.938;2022-08-19T14:52:15;27.00;99.90
41256;DHT22;26989;45.524;10.938;2022-08-19T14:54:42;27.20;99.90
41256;DHT22;26989;45.524;10.938;2022-08-19T14:57:12;27.30;99.90
41256;DHT22;26989;45.524;10.938;2022-08-19T14:59:39;27.20;99.90
41256;DHT22;26989;45.524;10.938;2022-08-19T15:02:06;27.00;99.90
41256;DHT22;26989;45.524;10.938;2022-08-19T15:04:53;27.10;99.90
41256;DHT22;26989;45.524;10.938;2022-08-19T15:07:24;27.00;99.90
41256;DHT22;26989;45.524;10.938;2022-08-19T15:09:55;26.40;99.90
41256;DHT22;26989;45.524;10.938;2022-08-19T15:12:22;26.70;99.90
41256;DHT22;26989;45.524;10.938;2022-08-19T15:14:49;27.00;99.90
41256;DHT22;26989;45.524;10.938;2022-08-19T15:17:22;27.10;99.90
41256;DHT22;26989;45.524;10.938;2022-08-19T15:20:11;27.50;99.90
41256;DHT22;26989;45.524;10.938;2022-08-19T15:22:39;27.80;99.90
41256;DHT22;26989;45.524;10.938;2022-08-19T15:25:08;28.20;99.90
41256;DHT22;26989;45.524;10.938;2022-08-19T15:27:38;28.20;99.90
41256;DHT22;26989;45.524;10.938;2022-08-19T15:30:10;28.20;99.90
41256;DHT22;26989;45.524;10.938;2022-08-19T15:32:38;28.20;99.90
41256;DHT22;26989;45.524;10.938;2022-08-19T15:35:06;27.90;99.90
41256;DHT22;26989;45.524;10.938;2022-08-19T15:37:33;27.60;99.90
41256;DHT22;26989;45.524;10.938;2022-08-19T15:40:05;27.50;99.90
41256;DHT22;26989;45.524;10.938;2022-08-19T15:42:35;27.40;99.90
41256;DHT22;26989;45.524;10.938;2022-08-19T15:45:06;27.00;99.90
41256;DHT22;26989;45.524;10.938;2022-08-19T15:47:33;27.20;99.90
41256;DHT22;26989;45.524;10.938;2022-08-19T15:50:11;27.50;99.90
41256;DHT22;26989;45.524;10.938;2022-08-19T15:52:50;27.50;99.90